sensor_id;sensor_type;location;lat;lon;timestamp;P1;durP1;ratioP1;P2;durP2;ratioP2
15677;SDS011;7939;50.814;6.368;2023-02-15T00:02:01;18.20;;;11.95;;
15677;SDS011;7939;50.814;6.368;2023-02-15T00:04:28;19.73;;;12.68;;
15677;SDS011;7939;50.814;6.368;2023-02-15T00:07:12;18.25;;;12.48;;
15677;SDS011;7939;50.814;6.368;2023-02-15T00:09:39;18.27;;;11.90;;
15677;SDS011;7939;50.814;6.368;2023-02-15T00:12:06;17.92;;;11.77;;
15677;SDS011;7939;50.814;6.368;2023-02-15T00:14:34;20.48;;;13.15;;
15677;SDS011;7939;50.814;6.368;2023-02-15T00:17:01;19.27;;;12.15;;
15677;SDS011;7939;50.814;6.368;2023-02-15T00:19:27;19.73;;;11.90;;
15677;SDS011;7939;50.814;6.368;2023-02-15T00:21:54;20.48;;;13.15;;
15677;SDS011;7939;50.814;6.368;2023-02-15T00:24:21;22.27;;;13.95;;
15677;SDS011;7939;50.814;6.368;2023-02-15T00:26:47;20.63;;;13.48;;
15677;SDS011;7939;50.814;6.368;2023-02-15T00:29:14;19.65;;;13.23;;
15677;SDS011;7939;50.814;6.368;2023-02-15T00:31:43;19.35;;;12.38;;
15677;SDS011;7939;50.814;6.368;2023-02-15T00:34:11;19.33;;;12.90;;
15677;SDS011;7939;50.814;6.368;2023-02-15T00:36:39;21.92;;;13.30;;
15677;SDS011;7939;50.814;6.368;2023-02-15T00:39:06;20.83;;;13.02;;
15677;SDS011;7939;50.814;6.368;2023-02-15T00:41:32;19.50;;;12.43;;
15677;SDS011;7939;50.814;6.368;2023-02-15T00:43:59;19.58;;;13.25;;
15677;SDS011;7939;50.814;6.368;2023-02-15T00:46:26;21.17;;;13.40;;
15677;SDS011;7939;50.814;6.368;2023-02-15T00:48:54;19.38;;;12.60;;
15677;SDS011;7939;50.814;6.368;2023-02-15T00:51:21;20.10;;;12.15;;
15677;SDS011;7939;50.814;6.368;2023-02-15T00:53:47;22.73;;;13.65;;
15677;SDS011;7939;50.814;6.368;2023-02-15T00:56:14;21.38;;;12.40;;
15677;SDS011;7939;50.814;6.368;2023-02-15T00:58:41;20.00;;;12.05;;
15677;SDS011;7939;50.814;6.368;2023-02-15T01:01:09;21.63;;;12.30;;
15677;SDS011;7939;50.814;6.368;2023-02-15T01:03:37;19.55;;;11.90;;
15677;SDS011;7939;50.814;6.368;2023-02-15T01:06:08;20.10;;;12.75;;
15677;SDS011;7939;50.814;6.368;2023-02-15T01:08:35;19.52;;;11.40;;
15677;SDS011;7939;50.814;6.368;2023-02-15T01:11:03;19.83;;;11.43;;
15677;SDS011;7939;50.814;6.368;2023-02-15T01:13:30;21.92;;;13.05;;
15677;SDS011;7939;50.814;6.368;2023-02-15T01:15:57;19.83;;;12.55;;
15677;SDS011;7939;50.814;6.368;2023-02-15T01:18:23;21.08;;;13.50;;
15677;SDS011;7939;50.814;6.368;2023-02-15T01:20:50;19.73;;;12.13;;
15677;SDS011;7939;50.814;6.368;2023-02-15T01:23:18;19.45;;;12.65;;
15677;SDS011;7939;50.814;6.368;2023-02-15T01:25:44;19.98;;;12.32;;
15677;SDS011;7939;50.814;6.368;2023-02-15T01:28:11;21.60;;;13.88;;
15677;SDS011;7939;50.814;6.368;2023-02-15T01:30:38;20.65;;;12.30;;
15677;SDS011;7939;50.814;6.368;2023-02-15T01:33:04;21.23;;;13.27;;
15677;SDS011;7939;50.814;6.368;2023-02-15T01:35:31;20.50;;;12.50;;
15677;SDS011;7939;50.814;6.368;2023-02-15T01:37:58;26.77;;;13.20;;
15677;SDS011;7939;50.814;6.368;2023-02-15T01:40:25;20.52;;;13.07;;
15677;SDS011;7939;50.814;6.368;2023-02-15T01:42:52;20.60;;;13.13;;
15677;SDS011;7939;50.814;6.368;2023-02-15T01:45:21;22.42;;;13.73;;
15677;SDS011;7939;50.814;6.368;2023-02-15T01:47:52;21.40;;;13.73;;
15677;SDS011;7939;50.814;6.368;2023-02-15T01:50:23;19.30;;;12.82;;
15677;SDS011;7939;50.814;6.368;2023-02-15T01:52:55;20.38;;;13.48;;
15677;SDS011;7939;50.814;6.368;2023-02-15T01:57:56;21.27;;;13.13;;
15677;SDS011;7939;50.814;6.368;2023-02-15T02:00:23;23.75;;;14.30;;
15677;SDS011;7939;50.814;6.368;2023-02-15T02:02:51;23.33;;;15.25;;
15677;SDS011;7939;50.814;6.368;2023-02-15T02:05:21;21.90;;;12.80;;
15677;SDS011;7939;50.814;6.368;2023-02-15T02:07:48;22.58;;;13.75;;
15677;SDS011;7939;50.814;6.368;2023-02-15T02:10:18;21.45;;;13.68;;
15677;SDS011;7939;50.814;6.368;2023-02-15T02:12:49;23.15;;;13.93;;
15677;SDS011;7939;50.814;6.368;2023-02-15T02:15:18;22.65;;;12.60;;
15677;SDS011;7939;50.814;6.368;2023-02-15T02:17:54;19.33;;;12.32;;
15677;SDS011;7939;50.814;6.368;2023-02-15T02:23:54;21.70;;;13.30;;
15677;SDS011;7939;50.814;6.368;2023-02-15T02:26:38;20.63;;;12.80;;
15677;SDS011;7939;50.814;6.368;2023-02-15T02:29:32;22.77;;;14.43;;
15677;SDS011;7939;50.814;6.368;2023-02-15T02:32:45;18.33;;;11.82;;
15677;SDS011;7939;50.814;6.368;2023-02-15T02:35:19;20.70;;;13.32;;
15677;SDS011;7939;50.814;6.368;2023-02-15T02:37:51;21.05;;;13.48;;
15677;SDS011;7939;50.814;6.368;2023-02-15T02:40:30;21.63;;;14.00;;
15677;SDS011;7939;50.814;6.368;2023-02-15T02:43:10;20.90;;;12.82;;
15677;SDS011;7939;50.814;6.368;2023-02-15T02:45:43;20.33;;;12.70;;
15677;SDS011;7939;50.814;6.368;2023-02-15T02:48:16;22.23;;;13.95;;
15677;SDS011;7939;50.814;6.368;2023-02-15T02:50:47;23.13;;;13.48;;
15677;SDS011;7939;50.814;6.368;2023-02-15T02:53:14;20.55;;;13.73;;
15677;SDS011;7939;50.814;6.368;2023-02-15T02:55:41;22.17;;;13.43;;
15677;SDS011;7939;50.814;6.368;2023-02-15T02:58:13;22.88;;;13.90;;
15677;SDS011;7939;50.814;6.368;2023-02-15T03:00:44;19.73;;;13.25;;
15677;SDS011;7939;50.814;6.368;2023-02-15T03:03:17;21.98;;;12.80;;
15677;SDS011;7939;50.814;6.368;2023-02-15T03:05:47;22.55;;;13.43;;
15677;SDS011;7939;50.814;6.368;2023-02-15T03:08:16;21.48;;;13.18;;
15677;SDS011;7939;50.814;6.368;2023-02-15T03:10:47;25.92;;;14.45;;
15677;SDS011;7939;50.814;6.368;2023-02-15T03:13:14;21.98;;;13.77;;
15677;SDS011;7939;50.814;6.368;2023-02-15T03:15:42;23.13;;;13.73;;
15677;SDS011;7939;50.814;6.368;2023-02-15T03:18:30;23.48;;;12.85;;
15677;SDS011;7939;50.814;6.368;2023-02-15T03:21:01;21.67;;;13.38;;
15677;SDS011;7939;50.814;6.368;2023-02-15T03:23:31;22.65;;;13.10;;
15677;SDS011;7939;50.814;6.368;2023-02-15T03:26:00;22.95;;;13.93;;
15677;SDS011;7939;50.814;6.368;2023-02-15T03:28:30;21.10;;;13.32;;
15677;SDS011;7939;50.814;6.368;2023-02-15T03:31:00;20.98;;;13.52;;
15677;SDS011;7939;50.814;6.368;2023-02-15T03:33:31;22.42;;;13.50;;
15677;SDS011;7939;50.814;6.368;2023-02-15T03:36:02;22.42;;;14.23;;
15677;SDS011;7939;50.814;6.368;2023-02-15T03:38:34;21.45;;;13.48;;
15677;SDS011;7939;50.814;6.368;2023-02-15T03:41:09;22.40;;;13.40;;
15677;SDS011;7939;50.814;6.368;2023-02-15T03:43:40;24.98;;;14.38;;
15677;SDS011;7939;50.814;6.368;2023-02-15T03:46:15;21.65;;;13.18;;
15677;SDS011;7939;50.814;6.368;2023-02-15T03:48:49;24.25;;;13.40;;
15677;SDS011;7939;50.814;6.368;2023-02-15T03:51:19;19.70;;;12.43;;
15677;SDS011;7939;50.814;6.368;2023-02-15T03:54:03;19.58;;;12.60;;
15677;SDS011;7939;50.814;6.368;2023-02-15T03:56:33;25.40;;;14.25;;
15677;SDS011;7939;50.814;6.368;2023-02-15T03:59:02;20.58;;;13.18;;
15677;SDS011;7939;50.814;6.368;2023-02-15T04:01:47;21.17;;;12.45;;
15677;SDS011;7939;50.814;6.368;2023-02-15T04:04:27;18.10;;;11.93;;
15677;SDS011;7939;50.814;6.368;2023-02-15T04:06:58;22.60;;;12.18;;
15677;SDS011;7939;50.814;6.368;2023-02-15T04:09:25;19.27;;;12.10;;
15677;SDS011;7939;50.814;6.368;2023-02-15T04:12:09;21.15;;;12.57;;
15677;SDS011;7939;50.814;6.368;2023-02-15T04:14:36;19.17;;;11.75;;
15677;SDS011;7939;50.814;6.368;2023-02-15T04:17:20;19.17;;;11.38;;
15677;SDS011;7939;50.814;6.368;2023-02-15T04:19:48;19.83;;;11.45;;
15677;SDS011;7939;50.814;6.368;2023-02-15T04:22:32;18.27;;;11.13;;
15677;SDS011;7939;50.814;6.368;2023-02-15T04:25:16;20.65;;;11.50;;
15677;SDS011;7939;50.814;6.368;2023-02-15T04:27:45;19.15;;;10.27;;
15677;SDS011;7939;50.814;6.368;2023-02-15T04:30:14;20.88;;;11.38;;
15677;SDS011;7939;50.814;6.368;2023-02-15T04:32:41;20.48;;;11.75;;
15677;SDS011;7939;50.814;6.368;2023-02-15T04:35:09;18.70;;;11.60;;
15677;SDS011;7939;50.814;6.368;2023-02-15T04:37:36;20.08;;;10.98;;
15677;SDS011;7939;50.814;6.368;2023-02-15T04:40:03;16.95;;;10.68;;
15677;SDS011;7939;50.814;6.368;2023-02-15T04:42:31;17.55;;;11.52;;
15677;SDS011;7939;50.814;6.368;2023-02-15T04:44:59;18.13;;;10.77;;
15677;SDS011;7939;50.814;6.368;2023-02-15T04:47:25;17.75;;;10.38;;
15677;SDS011;7939;50.814;6.368;2023-02-15T04:49:52;17.75;;;10.85;;
15677;SDS011;7939;50.814;6.368;2023-02-15T04:52:20;18.13;;;10.32;;
15677;SDS011;7939;50.814;6.368;2023-02-15T04:54:46;20.10;;;11.90;;
15677;SDS011;7939;50.814;6.368;2023-02-15T04:57:13;19.58;;;11.43;;
15677;SDS011;7939;50.814;6.368;2023-02-15T04:59:39;20.45;;;12.32;;
15677;SDS011;7939;50.814;6.368;2023-02-15T05:02:07;18.00;;;11.07;;
15677;SDS011;7939;50.814;6.368;2023-02-15T05:04:34;21.33;;;12.90;;
15677;SDS011;7939;50.814;6.368;2023-02-15T05:07:00;18.85;;;11.80;;
15677;SDS011;7939;50.814;6.368;2023-02-15T05:09:28;17.48;;;11.85;;
15677;SDS011;7939;50.814;6.368;2023-02-15T05:11:55;20.42;;;12.63;;
15677;SDS011;7939;50.814;6.368;2023-02-15T05:14:21;20.13;;;12.90;;
15677;SDS011;7939;50.814;6.368;2023-02-15T05:16:48;24.33;;;12.48;;
15677;SDS011;7939;50.814;6.368;2023-02-15T05:19:15;19.25;;;12.35;;
15677;SDS011;7939;50.814;6.368;2023-02-15T05:21:41;32.90;;;17.13;;
15677;SDS011;7939;50.814;6.368;2023-02-15T05:24:08;21.73;;;13.30;;
15677;SDS011;7939;50.814;6.368;2023-02-15T05:26:50;21.17;;;13.27;;
15677;SDS011;7939;50.814;6.368;2023-02-15T05:29:34;22.83;;;13.65;;
15677;SDS011;7939;50.814;6.368;2023-02-15T05:32:01;21.98;;;13.30;;
15677;SDS011;7939;50.814;6.368;2023-02-15T05:34:29;24.13;;;13.60;;
15677;SDS011;7939;50.814;6.368;2023-02-15T05:36:55;22.00;;;12.50;;
15677;SDS011;7939;50.814;6.368;2023-02-15T05:39:22;23.25;;;14.30;;
15677;SDS011;7939;50.814;6.368;2023-02-15T05:41:50;23.15;;;13.73;;
15677;SDS011;7939;50.814;6.368;2023-02-15T05:44:16;21.67;;;13.43;;
15677;SDS011;7939;50.814;6.368;2023-02-15T05:46:43;22.20;;;13.60;;
15677;SDS011;7939;50.814;6.368;2023-02-15T05:49:10;20.10;;;12.30;;
15677;SDS011;7939;50.814;6.368;2023-02-15T05:51:36;21.63;;;13.43;;
15677;SDS011;7939;50.814;6.368;2023-02-15T05:54:03;21.88;;;13.82;;
15677;SDS011;7939;50.814;6.368;2023-02-15T05:56:29;22.90;;;13.98;;
15677;SDS011;7939;50.814;6.368;2023-02-15T05:58:57;23.25;;;13.35;;
15677;SDS011;7939;50.814;6.368;2023-02-15T06:01:24;23.50;;;13.27;;
15677;SDS011;7939;50.814;6.368;2023-02-15T06:03:50;21.85;;;12.93;;
15677;SDS011;7939;50.814;6.368;2023-02-15T06:06:17;22.83;;;12.65;;
15677;SDS011;7939;50.814;6.368;2023-02-15T06:08:44;20.17;;;12.40;;
15677;SDS011;7939;50.814;6.368;2023-02-15T06:11:11;20.08;;;12.23;;
15677;SDS011;7939;50.814;6.368;2023-02-15T06:13:37;21.17;;;11.98;;
15677;SDS011;7939;50.814;6.368;2023-02-15T06:16:06;18.58;;;11.60;;
15677;SDS011;7939;50.814;6.368;2023-02-15T06:18:33;21.48;;;13.52;;
15677;SDS011;7939;50.814;6.368;2023-02-15T06:20:59;23.48;;;13.48;;
15677;SDS011;7939;50.814;6.368;2023-02-15T06:23:26;23.92;;;13.82;;
15677;SDS011;7939;50.814;6.368;2023-02-15T06:25:53;27.92;;;17.52;;
15677;SDS011;7939;50.814;6.368;2023-02-15T06:28:19;34.03;;;18.40;;
15677;SDS011;7939;50.814;6.368;2023-02-15T06:30:46;37.03;;;19.95;;
15677;SDS011;7939;50.814;6.368;2023-02-15T06:33:14;35.60;;;20.65;;
15677;SDS011;7939;50.814;6.368;2023-02-15T06:35:41;30.13;;;17.20;;
15677;SDS011;7939;50.814;6.368;2023-02-15T06:38:07;30.65;;;17.27;;
15677;SDS011;7939;50.814;6.368;2023-02-15T06:40:34;31.80;;;17.55;;
15677;SDS011;7939;50.814;6.368;2023-02-15T06:43:00;31.13;;;19.23;;
15677;SDS011;7939;50.814;6.368;2023-02-15T06:45:27;35.55;;;19.50;;
15677;SDS011;7939;50.814;6.368;2023-02-15T06:47:53;31.92;;;18.80;;
15677;SDS011;7939;50.814;6.368;2023-02-15T06:50:21;32.08;;;20.23;;
15677;SDS011;7939;50.814;6.368;2023-02-15T06:52:48;35.53;;;19.85;;
15677;SDS011;7939;50.814;6.368;2023-02-15T06:55:14;34.42;;;18.58;;
15677;SDS011;7939;50.814;6.368;2023-02-15T06:57:41;34.40;;;18.70;;
15677;SDS011;7939;50.814;6.368;2023-02-15T07:00:08;38.83;;;20.10;;
15677;SDS011;7939;50.814;6.368;2023-02-15T07:02:35;34.10;;;18.52;;
15677;SDS011;7939;50.814;6.368;2023-02-15T07:05:02;33.58;;;18.77;;
15677;SDS011;7939;50.814;6.368;2023-02-15T07:07:31;34.05;;;19.10;;
15677;SDS011;7939;50.814;6.368;2023-02-15T07:09:58;34.15;;;19.85;;
15677;SDS011;7939;50.814;6.368;2023-02-15T07:12:24;31.50;;;18.77;;
15677;SDS011;7939;50.814;6.368;2023-02-15T07:15:11;35.05;;;18.58;;
15677;SDS011;7939;50.814;6.368;2023-02-15T07:17:39;34.78;;;19.60;;
15677;SDS011;7939;50.814;6.368;2023-02-15T07:20:06;30.60;;;17.58;;
15677;SDS011;7939;50.814;6.368;2023-02-15T07:22:37;31.08;;;18.67;;
15677;SDS011;7939;50.814;6.368;2023-02-15T07:25:04;33.58;;;17.90;;
15677;SDS011;7939;50.814;6.368;2023-02-15T07:27:33;30.48;;;18.27;;
15677;SDS011;7939;50.814;6.368;2023-02-15T07:30:00;30.63;;;18.25;;
15677;SDS011;7939;50.814;6.368;2023-02-15T07:32:28;26.45;;;15.85;;
15677;SDS011;7939;50.814;6.368;2023-02-15T07:34:55;26.67;;;16.38;;
15677;SDS011;7939;50.814;6.368;2023-02-15T07:37:22;25.83;;;15.90;;
15677;SDS011;7939;50.814;6.368;2023-02-15T07:39:50;26.88;;;16.63;;
15677;SDS011;7939;50.814;6.368;2023-02-15T07:42:17;28.52;;;16.50;;
15677;SDS011;7939;50.814;6.368;2023-02-15T07:44:45;26.30;;;16.13;;
15677;SDS011;7939;50.814;6.368;2023-02-15T07:47:11;25.63;;;14.60;;
15677;SDS011;7939;50.814;6.368;2023-02-15T07:49:38;25.38;;;16.05;;
15677;SDS011;7939;50.814;6.368;2023-02-15T07:52:05;26.10;;;15.68;;
15677;SDS011;7939;50.814;6.368;2023-02-15T07:54:32;24.10;;;15.43;;
15677;SDS011;7939;50.814;6.368;2023-02-15T07:57:01;25.58;;;15.70;;
15677;SDS011;7939;50.814;6.368;2023-02-15T07:59:27;24.98;;;16.00;;
15677;SDS011;7939;50.814;6.368;2023-02-15T08:01:54;24.33;;;16.45;;
15677;SDS011;7939;50.814;6.368;2023-02-15T08:04:21;23.40;;;15.68;;
15677;SDS011;7939;50.814;6.368;2023-02-15T08:06:51;25.90;;;14.88;;
15677;SDS011;7939;50.814;6.368;2023-02-15T08:09:19;25.15;;;15.70;;
15677;SDS011;7939;50.814;6.368;2023-02-15T08:11:46;27.30;;;15.23;;
15677;SDS011;7939;50.814;6.368;2023-02-15T08:14:15;25.67;;;15.95;;
15677;SDS011;7939;50.814;6.368;2023-02-15T08:16:44;28.70;;;16.17;;
15677;SDS011;7939;50.814;6.368;2023-02-15T08:19:12;26.00;;;16.17;;
15677;SDS011;7939;50.814;6.368;2023-02-15T08:21:42;21.45;;;14.82;;
15677;SDS011;7939;50.814;6.368;2023-02-15T08:24:10;26.13;;;15.70;;
15677;SDS011;7939;50.814;6.368;2023-02-15T08:26:39;31.33;;;17.55;;
15677;SDS011;7939;50.814;6.368;2023-02-15T08:29:06;27.92;;;17.17;;
15677;SDS011;7939;50.814;6.368;2023-02-15T08:31:35;26.25;;;15.70;;
15677;SDS011;7939;50.814;6.368;2023-02-15T08:34:02;27.63;;;16.15;;
15677;SDS011;7939;50.814;6.368;2023-02-15T08:36:30;24.35;;;15.02;;
15677;SDS011;7939;50.814;6.368;2023-02-15T08:38:58;28.63;;;17.48;;
15677;SDS011;7939;50.814;6.368;2023-02-15T08:41:26;26.25;;;16.58;;
15677;SDS011;7939;50.814;6.368;2023-02-15T08:43:55;23.85;;;15.25;;
15677;SDS011;7939;50.814;6.368;2023-02-15T08:46:23;25.08;;;15.80;;
15677;SDS011;7939;50.814;6.368;2023-02-15T08:48:53;29.50;;;17.17;;
15677;SDS011;7939;50.814;6.368;2023-02-15T08:51:21;30.45;;;17.88;;
15677;SDS011;7939;50.814;6.368;2023-02-15T08:53:49;27.08;;;17.25;;
15677;SDS011;7939;50.814;6.368;2023-02-15T08:56:18;27.45;;;17.13;;
15677;SDS011;7939;50.814;6.368;2023-02-15T08:58:47;28.88;;;17.73;;
15677;SDS011;7939;50.814;6.368;2023-02-15T09:01:15;29.98;;;18.27;;
15677;SDS011;7939;50.814;6.368;2023-02-15T09:03:43;28.30;;;18.27;;
15677;SDS011;7939;50.814;6.368;2023-02-15T09:06:12;31.77;;;19.48;;
15677;SDS011;7939;50.814;6.368;2023-02-15T09:08:39;34.78;;;19.38;;
15677;SDS011;7939;50.814;6.368;2023-02-15T09:11:07;33.45;;;18.73;;
15677;SDS011;7939;50.814;6.368;2023-02-15T09:13:35;30.23;;;17.98;;
15677;SDS011;7939;50.814;6.368;2023-02-15T09:16:03;31.98;;;16.90;;
15677;SDS011;7939;50.814;6.368;2023-02-15T09:18:32;32.53;;;18.85;;
15677;SDS011;7939;50.814;6.368;2023-02-15T09:21:05;30.88;;;18.65;;
15677;SDS011;7939;50.814;6.368;2023-02-15T09:23:34;29.90;;;19.15;;
15677;SDS011;7939;50.814;6.368;2023-02-15T09:26:01;26.15;;;17.38;;
15677;SDS011;7939;50.814;6.368;2023-02-15T09:28:29;25.40;;;16.17;;
15677;SDS011;7939;50.814;6.368;2023-02-15T09:31:03;27.25;;;16.83;;
15677;SDS011;7939;50.814;6.368;2023-02-15T09:33:32;25.90;;;17.13;;
15677;SDS011;7939;50.814;6.368;2023-02-15T09:35:59;30.05;;;17.33;;
15677;SDS011;7939;50.814;6.368;2023-02-15T09:38:26;30.90;;;18.30;;
15677;SDS011;7939;50.814;6.368;2023-02-15T09:40:55;29.13;;;19.48;;
15677;SDS011;7939;50.814;6.368;2023-02-15T09:43:37;33.33;;;18.25;;
15677;SDS011;7939;50.814;6.368;2023-02-15T09:46:12;30.58;;;18.58;;
15677;SDS011;7939;50.814;6.368;2023-02-15T09:48:54;30.17;;;18.55;;
15677;SDS011;7939;50.814;6.368;2023-02-15T09:51:34;33.05;;;20.08;;
15677;SDS011;7939;50.814;6.368;2023-02-15T09:54:26;29.63;;;18.02;;
15677;SDS011;7939;50.814;6.368;2023-02-15T09:57:05;30.15;;;18.75;;
15677;SDS011;7939;50.814;6.368;2023-02-15T09:59:42;29.67;;;17.02;;
15677;SDS011;7939;50.814;6.368;2023-02-15T10:02:21;32.35;;;18.35;;
15677;SDS011;7939;50.814;6.368;2023-02-15T10:04:58;25.92;;;16.40;;
15677;SDS011;7939;50.814;6.368;2023-02-15T10:07:44;30.52;;;17.77;;
15677;SDS011;7939;50.814;6.368;2023-02-15T10:10:27;29.17;;;17.73;;
15677;SDS011;7939;50.814;6.368;2023-02-15T10:13:06;27.85;;;16.73;;
15677;SDS011;7939;50.814;6.368;2023-02-15T10:15:58;29.35;;;15.80;;
15677;SDS011;7939;50.814;6.368;2023-02-15T10:18:43;35.58;;;18.35;;
15677;SDS011;7939;50.814;6.368;2023-02-15T10:21:19;33.78;;;18.45;;
15677;SDS011;7939;50.814;6.368;2023-02-15T10:24:02;31.80;;;18.40;;
15677;SDS011;7939;50.814;6.368;2023-02-15T10:26:42;30.00;;;18.80;;
15677;SDS011;7939;50.814;6.368;2023-02-15T10:29:14;32.03;;;18.67;;
15677;SDS011;7939;50.814;6.368;2023-02-15T10:31:50;34.97;;;19.48;;
15677;SDS011;7939;50.814;6.368;2023-02-15T10:34:18;30.85;;;18.23;;
15677;SDS011;7939;50.814;6.368;2023-02-15T10:36:53;32.05;;;19.70;;
15677;SDS011;7939;50.814;6.368;2023-02-15T10:39:34;28.92;;;17.80;;
15677;SDS011;7939;50.814;6.368;2023-02-15T10:42:13;35.75;;;19.90;;
15677;SDS011;7939;50.814;6.368;2023-02-15T10:44:51;35.70;;;18.90;;
15677;SDS011;7939;50.814;6.368;2023-02-15T10:47:37;35.40;;;18.40;;
15677;SDS011;7939;50.814;6.368;2023-02-15T10:50:21;28.38;;;18.23;;
15677;SDS011;7939;50.814;6.368;2023-02-15T10:52:59;33.45;;;18.50;;
15677;SDS011;7939;50.814;6.368;2023-02-15T10:55:43;31.10;;;19.17;;
15677;SDS011;7939;50.814;6.368;2023-02-15T10:58:20;33.97;;;17.23;;
15677;SDS011;7939;50.814;6.368;2023-02-15T11:00:58;34.05;;;19.27;;
15677;SDS011;7939;50.814;6.368;2023-02-15T11:03:37;30.55;;;17.20;;
15677;SDS011;7939;50.814;6.368;2023-02-15T11:06:13;28.25;;;17.30;;
15677;SDS011;7939;50.814;6.368;2023-02-15T11:08:43;33.55;;;17.50;;
15677;SDS011;7939;50.814;6.368;2023-02-15T11:11:14;29.88;;;16.27;;
15677;SDS011;7939;50.814;6.368;2023-02-15T11:13:48;27.33;;;16.80;;
15677;SDS011;7939;50.814;6.368;2023-02-15T11:16:20;26.85;;;16.00;;
15677;SDS011;7939;50.814;6.368;2023-02-15T11:18:52;24.58;;;15.18;;
15677;SDS011;7939;50.814;6.368;2023-02-15T11:21:22;26.23;;;15.75;;
15677;SDS011;7939;50.814;6.368;2023-02-15T11:23:52;30.75;;;17.08;;
15677;SDS011;7939;50.814;6.368;2023-02-15T11:26:21;26.13;;;15.88;;
15677;SDS011;7939;50.814;6.368;2023-02-15T11:28:55;28.50;;;18.02;;
15677;SDS011;7939;50.814;6.368;2023-02-15T11:31:27;28.98;;;16.83;;
15677;SDS011;7939;50.814;6.368;2023-02-15T11:34:04;28.08;;;16.92;;
15677;SDS011;7939;50.814;6.368;2023-02-15T11:36:38;28.55;;;17.45;;
15677;SDS011;7939;50.814;6.368;2023-02-15T11:39:09;26.27;;;15.82;;
15677;SDS011;7939;50.814;6.368;2023-02-15T11:41:40;29.60;;;18.08;;
15677;SDS011;7939;50.814;6.368;2023-02-15T11:44:11;32.67;;;17.60;;
15677;SDS011;7939;50.814;6.368;2023-02-15T11:46:43;32.22;;;18.10;;
15677;SDS011;7939;50.814;6.368;2023-02-15T11:49:14;31.40;;;17.52;;
15677;SDS011;7939;50.814;6.368;2023-02-15T11:51:49;31.15;;;17.52;;
15677;SDS011;7939;50.814;6.368;2023-02-15T11:54:16;25.35;;;15.65;;
15677;SDS011;7939;50.814;6.368;2023-02-15T11:56:44;28.95;;;17.17;;
15677;SDS011;7939;50.814;6.368;2023-02-15T11:59:11;29.63;;;16.33;;
15677;SDS011;7939;50.814;6.368;2023-02-15T12:01:46;25.90;;;15.98;;
15677;SDS011;7939;50.814;6.368;2023-02-15T12:04:15;26.20;;;15.15;;
15677;SDS011;7939;50.814;6.368;2023-02-15T12:06:48;28.20;;;16.02;;
15677;SDS011;7939;50.814;6.368;2023-02-15T12:09:22;25.80;;;15.63;;
15677;SDS011;7939;50.814;6.368;2023-02-15T12:14:56;27.05;;;15.52;;
15677;SDS011;7939;50.814;6.368;2023-02-15T12:17:26;23.17;;;14.80;;
15677;SDS011;7939;50.814;6.368;2023-02-15T12:19:55;30.92;;;15.77;;
15677;SDS011;7939;50.814;6.368;2023-02-15T12:22:24;24.17;;;14.65;;
15677;SDS011;7939;50.814;6.368;2023-02-15T12:24:54;26.90;;;16.15;;
15677;SDS011;7939;50.814;6.368;2023-02-15T12:27:23;22.25;;;14.00;;
15677;SDS011;7939;50.814;6.368;2023-02-15T12:29:53;25.98;;;14.45;;
15677;SDS011;7939;50.814;6.368;2023-02-15T12:32:23;21.60;;;13.63;;
15677;SDS011;7939;50.814;6.368;2023-02-15T12:34:55;23.33;;;13.95;;
15677;SDS011;7939;50.814;6.368;2023-02-15T12:37:26;24.65;;;14.65;;
15677;SDS011;7939;50.814;6.368;2023-02-15T12:39:57;25.33;;;15.20;;
15677;SDS011;7939;50.814;6.368;2023-02-15T12:42:25;21.90;;;14.32;;
15677;SDS011;7939;50.814;6.368;2023-02-15T12:44:55;24.42;;;12.90;;
15677;SDS011;7939;50.814;6.368;2023-02-15T12:47:25;20.67;;;13.95;;
15677;SDS011;7939;50.814;6.368;2023-02-15T12:50:10;25.88;;;14.75;;
15677;SDS011;7939;50.814;6.368;2023-02-15T12:52:43;23.73;;;14.18;;
15677;SDS011;7939;50.814;6.368;2023-02-15T12:55:11;25.23;;;14.27;;
15677;SDS011;7939;50.814;6.368;2023-02-15T12:57:46;25.48;;;15.40;;
15677;SDS011;7939;50.814;6.368;2023-02-15T13:00:26;24.48;;;15.02;;
15677;SDS011;7939;50.814;6.368;2023-02-15T13:02:58;20.85;;;12.90;;
15677;SDS011;7939;50.814;6.368;2023-02-15T13:05:28;24.85;;;15.15;;
15677;SDS011;7939;50.814;6.368;2023-02-15T13:07:58;21.08;;;13.55;;
15677;SDS011;7939;50.814;6.368;2023-02-15T13:10:28;20.90;;;12.77;;
15677;SDS011;7939;50.814;6.368;2023-02-15T13:12:57;20.38;;;13.65;;
15677;SDS011;7939;50.814;6.368;2023-02-15T13:15:25;23.95;;;14.43;;
15677;SDS011;7939;50.814;6.368;2023-02-15T13:17:55;23.52;;;13.80;;
15677;SDS011;7939;50.814;6.368;2023-02-15T13:20:24;19.50;;;12.95;;
15677;SDS011;7939;50.814;6.368;2023-02-15T13:22:54;18.13;;;12.60;;
15677;SDS011;7939;50.814;6.368;2023-02-15T13:25:31;24.30;;;13.27;;
15677;SDS011;7939;50.814;6.368;2023-02-15T13:28:05;20.90;;;12.48;;
15677;SDS011;7939;50.814;6.368;2023-02-15T13:30:36;23.23;;;14.05;;
15677;SDS011;7939;50.814;6.368;2023-02-15T13:33:05;22.30;;;13.85;;
15677;SDS011;7939;50.814;6.368;2023-02-15T13:35:38;20.95;;;13.73;;
15677;SDS011;7939;50.814;6.368;2023-02-15T13:38:11;25.98;;;14.63;;
15677;SDS011;7939;50.814;6.368;2023-02-15T13:40:48;23.23;;;13.95;;
15677;SDS011;7939;50.814;6.368;2023-02-15T13:43:23;27.50;;;15.77;;
15677;SDS011;7939;50.814;6.368;2023-02-15T13:46:07;22.92;;;14.68;;
15677;SDS011;7939;50.814;6.368;2023-02-15T13:48:58;22.23;;;13.85;;
15677;SDS011;7939;50.814;6.368;2023-02-15T13:51:37;22.95;;;13.73;;
15677;SDS011;7939;50.814;6.368;2023-02-15T13:54:26;27.00;;;14.07;;
15677;SDS011;7939;50.814;6.368;2023-02-15T13:57:03;23.10;;;13.55;;
15677;SDS011;7939;50.814;6.368;2023-02-15T13:59:55;29.73;;;14.82;;
15677;SDS011;7939;50.814;6.368;2023-02-15T14:05:28;28.50;;;14.93;;
15677;SDS011;7939;50.814;6.368;2023-02-15T14:08:07;24.10;;;14.60;;
15677;SDS011;7939;50.814;6.368;2023-02-15T14:10:43;22.15;;;12.98;;
15677;SDS011;7939;50.814;6.368;2023-02-15T14:13:28;21.38;;;13.98;;
15677;SDS011;7939;50.814;6.368;2023-02-15T14:16:12;21.05;;;12.75;;
15677;SDS011;7939;50.814;6.368;2023-02-15T14:18:47;22.75;;;13.55;;
15677;SDS011;7939;50.814;6.368;2023-02-15T14:21:19;21.00;;;12.80;;
15677;SDS011;7939;50.814;6.368;2023-02-15T14:23:55;22.42;;;13.35;;
15677;SDS011;7939;50.814;6.368;2023-02-15T14:26:35;22.30;;;14.52;;
15677;SDS011;7939;50.814;6.368;2023-02-15T14:29:14;24.45;;;14.40;;
15677;SDS011;7939;50.814;6.368;2023-02-15T14:31:46;25.05;;;15.05;;
15677;SDS011;7939;50.814;6.368;2023-02-15T14:34:18;28.85;;;14.48;;
15677;SDS011;7939;50.814;6.368;2023-02-15T14:36:49;21.88;;;13.98;;
15677;SDS011;7939;50.814;6.368;2023-02-15T14:39:22;23.90;;;14.00;;
15677;SDS011;7939;50.814;6.368;2023-02-15T14:42:18;23.98;;;14.20;;
15677;SDS011;7939;50.814;6.368;2023-02-15T14:44:54;22.63;;;14.57;;
15677;SDS011;7939;50.814;6.368;2023-02-15T14:47:29;21.50;;;14.55;;
15677;SDS011;7939;50.814;6.368;2023-02-15T14:50:00;24.90;;;14.43;;
15677;SDS011;7939;50.814;6.368;2023-02-15T14:53:20;23.60;;;14.77;;
15677;SDS011;7939;50.814;6.368;2023-02-15T14:58:54;21.25;;;13.27;;
15677;SDS011;7939;50.814;6.368;2023-02-15T15:01:24;25.13;;;14.50;;
15677;SDS011;7939;50.814;6.368;2023-02-15T15:03:53;22.40;;;14.55;;
15677;SDS011;7939;50.814;6.368;2023-02-15T15:06:23;26.73;;;14.68;;
15677;SDS011;7939;50.814;6.368;2023-02-15T15:08:53;21.67;;;14.63;;
15677;SDS011;7939;50.814;6.368;2023-02-15T15:11:45;22.08;;;14.07;;
15677;SDS011;7939;50.814;6.368;2023-02-15T15:17:06;19.67;;;14.00;;